createdAt,value
2022-08-28T00:02:05.065Z,15.71
2022-08-28T00:04:32.576Z,15.64
2022-08-28T00:07:02.113Z,15.60
2022-08-28T00:09:29.208Z,15.58
2022-08-28T00:11:56.760Z,15.57
2022-08-28T00:14:25.641Z,15.53
2022-08-28T00:16:54.372Z,15.49
2022-08-28T00:19:23.968Z,15.47
2022-08-28T00:21:52.700Z,15.45
2022-08-28T00:24:20.183Z,15.43
2022-08-28T00:27:05.589Z,15.40
2022-08-28T00:29:32.747Z,15.35
2022-08-28T00:32:00.347Z,15.33
2022-08-28T00:34:33.371Z,15.31
2022-08-28T00:37:01.268Z,15.29
2022-08-28T00:39:28.786Z,15.25
2022-08-28T00:41:57.945Z,15.24
2022-08-28T00:44:27.799Z,15.19
2022-08-28T00:46:59.269Z,15.16
2022-08-28T00:49:35.971Z,15.11
2022-08-28T00:52:12.098Z,15.05
2022-08-28T00:54:58.694Z,14.99
2022-08-28T00:57:37.396Z,14.97
2022-08-28T01:00:11.336Z,14.92
2022-08-28T01:02:38.700Z,14.86
2022-08-28T01:05:09.657Z,14.83
2022-08-28T01:07:39.342Z,14.79
2022-08-28T01:10:14.571Z,14.74
2022-08-28T01:12:43.112Z,14.70
2022-08-28T01:15:17.490Z,14.66
2022-08-28T01:17:49.130Z,14.63
2022-08-28T01:20:23.182Z,14.58
2022-08-28T01:23:11.495Z,14.53
2022-08-28T01:25:40.265Z,14.49
2022-08-28T01:28:14.360Z,14.48
2022-08-28T01:30:44.580Z,14.42
2022-08-28T01:33:14.695Z,14.39
2022-08-28T01:35:47.458Z,14.34
2022-08-28T01:38:21.461Z,14.31
2022-08-28T01:40:57.773Z,14.27
2022-08-28T01:43:27.871Z,14.22
2022-08-28T01:46:02.199Z,14.18
2022-08-28T01:48:33.036Z,14.14
2022-08-28T01:51:00.260Z,14.09
2022-08-28T01:53:33.195Z,14.07
2022-08-28T01:56:07.045Z,14.04
2022-08-28T01:58:38.267Z,13.98
2022-08-28T02:01:17.148Z,13.96
2022-08-28T02:03:44.586Z,13.91
2022-08-28T02:06:15.780Z,13.88
2022-08-28T02:08:42.926Z,13.82
2022-08-28T02:11:10.866Z,13.79
2022-08-28T02:13:39.681Z,13.75
2022-08-28T02:16:09.878Z,13.73
2022-08-28T02:18:37.968Z,13.71
2022-08-28T02:21:07.733Z,13.68
2022-08-28T02:23:39.466Z,13.66
2022-08-28T02:26:08.707Z,13.64
2022-08-28T02:28:37.423Z,13.61
2022-08-28T02:31:09.308Z,13.57
2022-08-28T02:33:44.569Z,13.55
2022-08-28T02:36:14.907Z,13.51
2022-08-28T02:38:44.226Z,13.49
2022-08-28T02:41:17.307Z,13.46
2022-08-28T02:43:44.810Z,13.42
2022-08-28T02:46:11.917Z,13.40
2022-08-28T02:48:40.540Z,13.35
2022-08-28T02:51:14.956Z,13.36
2022-08-28T02:53:42.739Z,13.34
2022-08-28T02:56:10.562Z,13.31
2022-08-28T02:58:39.458Z,13.31
2022-08-28T03:01:11.302Z,13.27
2022-08-28T03:03:40.936Z,13.26
2022-08-28T03:06:12.523Z,13.24
2022-08-28T03:08:41.926Z,13.24
2022-08-28T03:11:09.483Z,13.18
2022-08-28T03:13:36.559Z,13.17
2022-08-28T03:16:05.118Z,13.16
2022-08-28T03:18:33.188Z,13.13
2022-08-28T03:21:01.476Z,13.08
2022-08-28T03:23:28.875Z,13.09
2022-08-28T03:26:02.840Z,13.07
2022-08-28T03:28:41.277Z,13.03
2022-08-28T03:31:15.323Z,13.01
2022-08-28T03:33:42.985Z,12.99
2022-08-28T03:36:17.622Z,12.98
2022-08-28T03:38:44.751Z,12.98
2022-08-28T03:41:17.772Z,12.97
2022-08-28T03:43:46.208Z,12.98
2022-08-28T03:46:22.694Z,12.95
2022-08-28T03:48:51.371Z,12.96
2022-08-28T03:51:29.717Z,12.98
2022-08-28T03:54:01.857Z,13.03
2022-08-28T03:56:30.843Z,13.05
2022-08-28T03:59:01.713Z,13.08
2022-08-28T04:01:29.404Z,13.09
2022-08-28T04:03:57.180Z,13.15
2022-08-28T04:06:25.884Z,13.22
2022-08-28T04:08:53.050Z,13.24
2022-08-28T04:11:21.369Z,13.26
2022-08-28T04:13:48.542Z,13.26
2022-08-28T04:16:19.086Z,13.27
2022-08-28T04:18:49.475Z,13.27
2022-08-28T04:21:21.069Z,13.29
2022-08-28T04:23:48.447Z,13.33
2022-08-28T04:26:20.298Z,13.31
2022-08-28T04:28:48.849Z,13.32
2022-08-28T04:31:17.949Z,13.35
2022-08-28T04:33:59.514Z,13.35
2022-08-28T04:36:26.648Z,13.35
2022-08-28T04:38:53.745Z,13.34
2022-08-28T04:41:20.858Z,13.34
2022-08-28T04:43:48.559Z,13.34
2022-08-28T04:46:15.696Z,13.34
2022-08-28T04:48:43.588Z,13.33
2022-08-28T04:51:14.937Z,13.33
2022-08-28T04:53:43.151Z,13.28
2022-08-28T04:56:15.879Z,13.30
2022-08-28T04:58:43.864Z,13.29
2022-08-28T05:01:24.190Z,13.29
2022-08-28T05:03:57.968Z,13.30
2022-08-28T05:06:28.902Z,13.26
2022-08-28T05:09:02.462Z,13.27
2022-08-28T05:11:34.078Z,13.26
2022-08-28T05:14:05.457Z,13.28
2022-08-28T05:16:39.537Z,13.30
2022-08-28T05:19:06.628Z,13.31
2022-08-28T05:21:33.907Z,13.33
2022-08-28T05:24:01.102Z,13.35
2022-08-28T05:26:29.958Z,13.37
2022-08-28T05:29:00.538Z,13.40
2022-08-28T05:31:31.602Z,13.43
2022-08-28T05:34:01.007Z,13.46
2022-08-28T05:36:33.370Z,13.48
2022-08-28T05:39:04.791Z,13.54
2022-08-28T05:41:34.807Z,13.63
2022-08-28T05:44:11.859Z,13.72
2022-08-28T05:46:42.791Z,13.79
2022-08-28T05:49:18.359Z,13.89
2022-08-28T05:51:46.457Z,13.96
2022-08-28T05:54:15.615Z,14.02
2022-08-28T05:56:45.367Z,14.08
2022-08-28T05:59:14.686Z,14.14
2022-08-28T06:01:48.651Z,14.25
2022-08-28T06:04:25.877Z,14.31
2022-08-28T06:06:53.671Z,14.38
2022-08-28T06:09:29.333Z,14.41
2022-08-28T06:12:00.865Z,14.53
2022-08-28T06:14:30.241Z,14.57
2022-08-28T06:16:58.657Z,14.67
2022-08-28T06:19:29.660Z,14.78
2022-08-28T06:22:01.568Z,14.89
2022-08-28T06:24:34.824Z,14.94
2022-08-28T06:27:02.111Z,15.04
2022-08-28T06:29:30.435Z,15.12
2022-08-28T06:32:04.526Z,15.22
2022-08-28T06:34:32.890Z,15.35
2022-08-28T06:37:00.592Z,15.45
2022-08-28T06:39:28.199Z,15.63
2022-08-28T06:41:55.481Z,15.74
2022-08-28T06:44:23.096Z,15.77
2022-08-28T06:46:53.922Z,15.87
2022-08-28T06:49:22.278Z,15.92
2022-08-28T06:51:50.044Z,16.04
2022-08-28T06:54:22.134Z,16.10
2022-08-28T06:56:52.389Z,16.22
2022-08-28T06:59:20.073Z,16.29
2022-08-28T07:01:47.417Z,16.37
2022-08-28T07:04:14.821Z,16.50
2022-08-28T07:06:46.836Z,16.71
2022-08-28T07:09:14.472Z,16.81
2022-08-28T07:11:48.991Z,16.85
2022-08-28T07:14:16.562Z,16.97
2022-08-28T07:16:44.704Z,17.01
2022-08-28T07:19:13.216Z,17.10
2022-08-28T07:21:44.727Z,17.15
2022-08-28T07:24:14.945Z,17.22
2022-08-28T07:26:43.689Z,17.32
2022-08-28T07:29:12.065Z,17.39
2022-08-28T07:31:46.348Z,17.43
2022-08-28T07:34:15.825Z,17.52
2022-08-28T07:36:43.594Z,17.58
2022-08-28T07:39:13.189Z,17.63
2022-08-28T07:41:42.941Z,17.72
2022-08-28T07:44:32.851Z,17.79
2022-08-28T07:47:05.663Z,17.91
2022-08-28T07:49:34.886Z,18.00
2022-08-28T07:52:02.532Z,18.11
2022-08-28T07:54:29.763Z,18.20
2022-08-28T07:56:58.019Z,18.27
2022-08-28T07:59:25.167Z,18.46
2022-08-28T08:01:53.424Z,18.53
2022-08-28T08:04:23.401Z,18.63
2022-08-28T08:06:57.855Z,18.82
2022-08-28T08:09:27.224Z,18.92
2022-08-28T08:11:56.621Z,19.03
2022-08-28T08:14:25.366Z,19.13
2022-08-28T08:16:53.419Z,19.24
2022-08-28T08:19:20.911Z,19.27
2022-08-28T08:21:53.141Z,19.39
2022-08-28T08:24:26.412Z,19.60
2022-08-28T08:27:00.507Z,19.66
2022-08-28T08:29:35.966Z,19.82
2022-08-28T08:32:08.877Z,19.95
2022-08-28T08:34:43.481Z,20.25
2022-08-28T08:37:11.692Z,20.53
2022-08-28T08:39:41.685Z,20.68
2022-08-28T08:42:27.515Z,20.49
2022-08-28T08:44:58.775Z,20.36
2022-08-28T08:47:51.690Z,20.26
2022-08-28T08:50:24.122Z,20.33
2022-08-28T08:53:09.228Z,20.55
2022-08-28T08:55:47.873Z,20.56
2022-08-28T08:58:37.864Z,20.67
2022-08-28T09:01:23.350Z,20.86
2022-08-28T09:04:40.146Z,21.03
2022-08-28T09:07:19.651Z,21.36
2022-08-28T09:09:56.076Z,21.56
2022-08-28T09:12:28.516Z,21.54
2022-08-28T09:15:26.382Z,21.60
2022-08-28T09:18:07.479Z,21.47
2022-08-28T09:20:34.568Z,21.25
2022-08-28T09:23:02.157Z,21.18
2022-08-28T09:25:53.139Z,21.14
2022-08-28T09:28:30.996Z,21.21
2022-08-28T09:31:08.841Z,21.14
2022-08-28T09:33:52.060Z,21.19
2022-08-28T09:36:34.157Z,21.25
2022-08-28T09:39:25.579Z,21.40
2022-08-28T09:42:34.511Z,21.51
2022-08-28T09:45:20.981Z,21.67
2022-08-28T09:48:03.474Z,21.90
2022-08-28T09:50:42.330Z,21.95
2022-08-28T09:53:09.547Z,22.00
2022-08-28T09:56:17.172Z,22.02
2022-08-28T09:58:55.873Z,21.80
2022-08-28T10:01:44.692Z,21.53
2022-08-28T10:04:15.981Z,21.63
2022-08-28T10:07:12.179Z,21.81
2022-08-28T10:10:30.225Z,21.71
2022-08-28T10:13:10.528Z,21.68
2022-08-28T10:16:09.846Z,21.78
2022-08-28T10:18:53.065Z,21.96
2022-08-28T10:21:42.834Z,22.05
2022-08-28T10:24:46.395Z,21.97
2022-08-28T10:27:34.463Z,22.08
2022-08-28T10:30:15.139Z,22.36
2022-08-28T10:33:06.562Z,22.36
2022-08-28T10:36:04.194Z,22.57
2022-08-28T10:38:50.776Z,22.55
2022-08-28T10:41:33.729Z,22.57
2022-08-28T10:44:05.127Z,22.75
2022-08-28T10:46:55.810Z,22.87
2022-08-28T10:49:37.403Z,22.91
2022-08-28T10:52:23.766Z,22.65
2022-08-28T10:55:07.521Z,22.37
2022-08-28T10:57:49.559Z,21.93
2022-08-28T11:00:22.145Z,21.97
2022-08-28T11:03:17.805Z,22.23
2022-08-28T11:06:05.726Z,22.26
2022-08-28T11:08:37.128Z,22.59
2022-08-28T11:11:13.522Z,22.82
2022-08-28T11:14:06.882Z,22.99
2022-08-28T11:16:33.967Z,23.03
2022-08-28T11:19:38.735Z,23.33
2022-08-28T11:22:19.456Z,23.43
2022-08-28T11:25:18.456Z,23.39
2022-08-28T11:28:24.421Z,23.22
2022-08-28T11:31:00.806Z,23.34
2022-08-28T11:33:39.919Z,23.49
2022-08-28T11:36:32.768Z,23.46
2022-08-28T11:39:22.810Z,23.31
2022-08-28T11:42:29.287Z,23.20
2022-08-28T11:44:56.906Z,23.06
2022-08-28T11:47:46.633Z,22.78
2022-08-28T11:50:22.016Z,22.59
2022-08-28T11:54:08.863Z,22.52
2022-08-28T11:56:49.855Z,22.89
2022-08-28T11:59:43.971Z,23.18
2022-08-28T12:02:45.091Z,23.50
2022-08-28T12:05:15.941Z,23.64
2022-08-28T12:07:50.795Z,23.81
2022-08-28T12:10:20.892Z,23.92
2022-08-28T12:12:59.462Z,24.21
2022-08-28T12:15:29.780Z,24.51
2022-08-28T12:18:35.447Z,24.79
2022-08-28T12:21:07.286Z,25.10
2022-08-28T12:23:57.034Z,24.59
2022-08-28T12:26:39.767Z,24.58
2022-08-28T12:29:28.912Z,24.96
2022-08-28T12:32:19.767Z,25.26
2022-08-28T12:34:59.007Z,24.84
2022-08-28T12:37:55.050Z,24.53
2022-08-28T12:40:37.763Z,24.91
2022-08-28T12:43:10.201Z,25.40
2022-08-28T12:45:52.724Z,25.80
2022-08-28T12:48:26.268Z,25.62
2022-08-28T12:51:13.978Z,25.32
2022-08-28T12:53:55.264Z,24.66
2022-08-28T12:56:25.508Z,24.45
2022-08-28T12:58:52.991Z,24.57
2022-08-28T13:01:33.869Z,24.84
2022-08-28T13:04:32.753Z,25.19
2022-08-28T13:07:11.710Z,25.36
2022-08-28T13:09:48.628Z,24.95
2022-08-28T13:12:29.072Z,24.47
2022-08-28T13:15:12.935Z,24.53
2022-08-28T13:17:52.203Z,24.44
2022-08-28T13:20:36.391Z,24.38
2022-08-28T13:23:05.312Z,24.51
2022-08-28T13:25:37.599Z,24.66
2022-08-28T13:28:17.743Z,24.93
2022-08-28T13:30:58.364Z,24.94
2022-08-28T13:33:27.120Z,24.72
2022-08-28T13:35:54.913Z,24.42
2022-08-28T13:38:25.325Z,24.03
2022-08-28T13:41:00.126Z,24.15
2022-08-28T13:43:44.164Z,24.29
2022-08-28T13:46:11.397Z,24.58
2022-08-28T13:48:38.642Z,24.90
2022-08-28T13:51:14.231Z,25.22
2022-08-28T13:53:50.003Z,25.35
2022-08-28T13:56:17.640Z,25.41
2022-08-28T13:58:44.842Z,25.59
2022-08-28T14:01:45.006Z,26.00
2022-08-28T14:04:13.226Z,26.39
2022-08-28T14:06:44.280Z,26.41
2022-08-28T14:09:15.275Z,25.85
2022-08-28T14:11:46.700Z,25.29
2022-08-28T14:14:14.206Z,24.84
2022-08-28T14:16:42.160Z,24.52
2022-08-28T14:19:09.508Z,24.21
2022-08-28T14:21:39.935Z,24.01
2022-08-28T14:24:10.247Z,23.89
2022-08-28T14:26:38.338Z,23.80
2022-08-28T14:29:10.480Z,23.70
2022-08-28T14:31:40.865Z,23.89
2022-08-28T14:34:11.622Z,24.15
2022-08-28T14:36:41.119Z,24.50
2022-08-28T14:39:11.616Z,24.81
2022-08-28T14:41:46.145Z,25.02
2022-08-28T14:44:13.500Z,24.85
2022-08-28T14:46:44.263Z,24.64
2022-08-28T14:49:14.922Z,24.37
2022-08-28T14:51:44.970Z,24.14
2022-08-28T14:54:16.208Z,23.84
2022-08-28T14:56:45.302Z,23.55
2022-08-28T14:59:24.234Z,23.28
2022-08-28T15:01:55.237Z,23.08
2022-08-28T15:16:32.520Z,24.26
2022-08-28T15:19:01.541Z,24.46
2022-08-28T15:21:35.549Z,24.70
2022-08-28T15:24:05.004Z,24.86
2022-08-28T15:26:32.746Z,24.57
2022-08-28T15:29:03.524Z,24.16
2022-08-28T15:31:39.129Z,23.76
2022-08-28T15:34:15.468Z,23.46
2022-08-28T15:36:45.729Z,23.28
2022-08-28T15:39:45.913Z,23.50
2022-08-28T15:42:14.747Z,23.72
2022-08-28T15:44:42.336Z,23.79
2022-08-28T15:47:09.804Z,23.85
2022-08-28T15:49:46.918Z,23.61
2022-08-28T15:52:19.033Z,23.62
2022-08-28T15:54:47.589Z,23.66
2022-08-28T15:57:15.477Z,23.70
2022-08-28T15:59:49.332Z,23.73
2022-08-28T16:02:21.931Z,23.93
2022-08-28T16:04:49.580Z,24.17
2022-08-28T16:07:42.060Z,24.27
2022-08-28T16:10:13.345Z,24.45
2022-08-28T16:12:40.983Z,24.65
2022-08-28T16:15:09.345Z,24.69
2022-08-28T16:17:36.510Z,24.78
2022-08-28T16:20:06.604Z,24.62
2022-08-28T16:22:40.075Z,24.58
2022-08-28T16:25:09.479Z,24.57
2022-08-28T16:27:36.619Z,24.71
2022-08-28T16:30:06.373Z,24.83
2022-08-28T16:32:42.764Z,24.45
2022-08-28T16:35:15.697Z,23.87
2022-08-28T16:37:43.360Z,23.63
2022-08-28T16:40:14.472Z,23.55
2022-08-28T16:42:42.537Z,23.33
2022-08-28T16:45:18.848Z,23.08
2022-08-28T16:47:46.935Z,23.06
2022-08-28T16:50:14.776Z,23.16
2022-08-28T16:52:41.864Z,23.32
2022-08-28T16:55:13.684Z,23.65
2022-08-28T16:57:41.022Z,23.98
2022-08-28T17:00:14.288Z,24.13
2022-08-28T17:02:43.440Z,24.21
2022-08-28T17:05:14.188Z,24.27
2022-08-28T17:07:41.540Z,24.45
2022-08-28T17:10:12.924Z,24.48
2022-08-28T17:12:41.280Z,24.68
2022-08-28T17:15:11.414Z,24.70
2022-08-28T17:17:39.663Z,24.81
2022-08-28T17:20:29.597Z,24.42
2022-08-28T17:22:57.257Z,23.88
2022-08-28T17:25:26.831Z,23.67
2022-08-28T17:27:55.526Z,23.26
2022-08-28T17:30:23.434Z,22.95
2022-08-28T17:32:51.345Z,22.77
2022-08-28T17:35:18.951Z,22.60
2022-08-28T17:37:46.573Z,22.46
2022-08-28T17:40:22.093Z,22.39
2022-08-28T17:42:49.285Z,22.17
2022-08-28T17:45:16.493Z,21.97
2022-08-28T17:47:43.525Z,21.86
2022-08-28T17:50:11.098Z,21.77
2022-08-28T17:52:39.776Z,21.76
2022-08-28T17:55:08.317Z,21.65
2022-08-28T17:57:35.739Z,21.50
2022-08-28T18:00:09.944Z,21.32
2022-08-28T18:02:43.264Z,21.10
2022-08-28T18:05:15.252Z,20.96
2022-08-28T18:07:42.511Z,20.84
2022-08-28T18:10:12.472Z,20.71
2022-08-28T18:12:43.208Z,20.58
2022-08-28T18:15:13.615Z,20.44
2022-08-28T18:17:43.128Z,20.33
2022-08-28T18:20:12.254Z,20.24
2022-08-28T18:22:39.508Z,20.12
2022-08-28T18:25:07.460Z,20.04
2022-08-28T18:27:35.092Z,19.96
2022-08-28T18:30:02.716Z,19.88
2022-08-28T18:32:29.771Z,19.78
2022-08-28T18:34:56.780Z,19.70
2022-08-28T18:37:23.857Z,19.64
2022-08-28T18:39:51.684Z,19.57
2022-08-28T18:42:21.411Z,19.47
2022-08-28T18:44:49.484Z,19.39
2022-08-28T18:47:16.580Z,19.31
2022-08-28T18:49:43.564Z,19.22
2022-08-28T18:52:10.659Z,19.16
2022-08-28T18:54:37.736Z,19.08
2022-08-28T18:57:10.704Z,19.05
2022-08-28T18:59:38.680Z,18.97
2022-08-28T19:02:07.124Z,18.91
2022-08-28T19:04:34.144Z,18.83
2022-08-28T19:07:04.996Z,18.74
2022-08-28T19:09:33.141Z,18.67
2022-08-28T19:12:03.463Z,18.61
2022-08-28T19:14:30.976Z,18.55
2022-08-28T19:16:58.079Z,18.48
2022-08-28T19:19:25.443Z,18.42
2022-08-28T19:21:54.928Z,18.34
2022-08-28T19:24:24.269Z,18.28
2022-08-28T19:26:51.434Z,18.20
2022-08-28T19:29:19.044Z,18.14
2022-08-28T19:31:46.040Z,18.09
2022-08-28T19:34:13.050Z,18.04
2022-08-28T19:36:41.755Z,17.96
2022-08-28T19:39:12.909Z,17.91
2022-08-28T19:41:41.030Z,17.86
2022-08-28T19:44:08.722Z,17.80
2022-08-28T19:46:39.256Z,17.75
2022-08-28T19:49:07.576Z,17.68
2022-08-28T19:51:37.088Z,17.63
2022-08-28T19:54:04.976Z,17.58
2022-08-28T19:56:34.259Z,17.54
2022-08-28T19:59:04.492Z,17.49
2022-08-28T20:01:37.109Z,17.43
2022-08-28T20:04:07.428Z,17.38
2022-08-28T20:06:36.584Z,17.32
2022-08-28T20:09:08.307Z,17.27
2022-08-28T20:11:40.496Z,17.20
2022-08-28T20:14:07.902Z,17.16
2022-08-28T20:16:39.719Z,17.11
2022-08-28T20:19:07.918Z,17.07
2022-08-28T20:21:43.976Z,17.03
2022-08-28T20:24:17.628Z,16.99
2022-08-28T20:26:46.534Z,16.92
2022-08-28T20:29:15.591Z,16.88
2022-08-28T20:31:47.768Z,16.83
2022-08-28T20:34:19.131Z,16.77
2022-08-28T20:36:47.353Z,16.73
2022-08-28T20:39:15.501Z,16.69
2022-08-28T20:41:44.358Z,16.63
2022-08-28T20:44:16.051Z,16.57
2022-08-28T20:46:43.779Z,16.53
2022-08-28T20:49:21.685Z,16.50
2022-08-28T20:51:58.701Z,16.46
2022-08-28T20:54:32.479Z,16.40
2022-08-28T20:57:07.603Z,16.38
2022-08-28T20:59:40.631Z,16.34
2022-08-28T21:02:13.418Z,16.31
2022-08-28T21:04:43.341Z,16.27
2022-08-28T21:07:12.154Z,16.21
2022-08-28T21:10:06.377Z,16.18
2022-08-28T21:12:27.019Z,16.13
2022-08-28T21:14:54.172Z,16.12
2022-08-28T21:17:29.867Z,16.09
2022-08-28T21:20:09.356Z,16.06
2022-08-28T21:22:38.664Z,16.02
2022-08-28T21:25:10.441Z,16.01
2022-08-28T21:27:38.393Z,15.97
2022-08-28T21:30:08.118Z,15.95
2022-08-28T21:32:36.220Z,15.91
2022-08-28T21:35:09.512Z,15.87
2022-08-28T21:37:41.430Z,15.82
2022-08-28T21:40:12.028Z,15.81
2022-08-28T21:42:39.309Z,15.77
2022-08-28T21:45:11.747Z,15.72
2022-08-28T21:47:41.281Z,15.71
2022-08-28T21:50:10.727Z,15.70
2022-08-28T21:52:37.928Z,15.67
2022-08-28T21:55:11.503Z,15.64
2022-08-28T21:57:38.893Z,15.57
2022-08-28T22:00:20.088Z,15.52
2022-08-28T22:02:47.829Z,15.47
2022-08-28T22:05:16.213Z,15.43
2022-08-28T22:07:44.993Z,15.41
2022-08-28T22:10:12.279Z,15.37
2022-08-28T22:12:39.638Z,15.36
2022-08-28T22:15:07.269Z,15.36
2022-08-28T22:17:34.404Z,15.33
2022-08-28T22:20:02.180Z,15.34
2022-08-28T22:22:47.793Z,15.35
2022-08-28T22:25:15.021Z,15.34
2022-08-28T22:27:42.196Z,15.35
2022-08-28T22:30:10.072Z,15.38
2022-08-28T22:32:37.076Z,15.36
2022-08-28T22:35:04.744Z,15.35
2022-08-28T22:37:32.211Z,15.36
2022-08-28T22:39:59.348Z,15.35
2022-08-28T22:42:26.681Z,15.34
2022-08-28T22:44:53.653Z,15.31
2022-08-28T22:47:20.744Z,15.32
2022-08-28T22:49:49.786Z,15.31
2022-08-28T22:52:17.237Z,15.29
2022-08-28T22:54:44.293Z,15.28
2022-08-28T22:57:12.621Z,15.28
2022-08-28T22:59:39.714Z,15.25
2022-08-28T23:02:07.356Z,15.22
2022-08-28T23:04:34.399Z,15.18
2022-08-28T23:07:01.449Z,15.15
2022-08-28T23:09:28.400Z,15.11
2022-08-28T23:11:55.369Z,15.10
2022-08-28T23:14:27.490Z,15.05
2022-08-28T23:16:55.868Z,15.04
2022-08-28T23:19:23.408Z,15.02
2022-08-28T23:21:50.574Z,15.01
2022-08-28T23:24:18.268Z,14.99
2022-08-28T23:26:48.482Z,14.97
2022-08-28T23:29:15.709Z,14.93
2022-08-28T23:31:42.887Z,14.88
2022-08-28T23:34:10.037Z,14.84
2022-08-28T23:36:39.346Z,14.75
2022-08-28T23:39:10.153Z,14.70
2022-08-28T23:41:37.170Z,14.65
2022-08-28T23:44:08.508Z,14.60
2022-08-28T23:46:41.152Z,14.56
2022-08-28T23:49:11.304Z,14.51
2022-08-28T23:51:42.000Z,14.44
2022-08-28T23:54:10.685Z,14.38
2022-08-28T23:56:38.401Z,14.35
2022-08-28T23:59:06.292Z,14.31
